sensor_id;sensor_type;location;lat;lon;timestamp;P1;durP1;ratioP1;P2;durP2;ratioP2
2896;SDS011;1458;49.728;9.228;2023-09-18T00:01:26;0.10;;;0.10;;
2896;SDS011;1458;49.728;9.228;2023-09-18T00:03:53;0.10;;;0.10;;
2896;SDS011;1458;49.728;9.228;2023-09-18T00:06:22;0.10;;;0.10;;
2896;SDS011;1458;49.728;9.228;2023-09-18T00:08:50;0.10;;;0.10;;
2896;SDS011;1458;49.728;9.228;2023-09-18T00:11:19;0.10;;;0.10;;
2896;SDS011;1458;49.728;9.228;2023-09-18T00:13:46;0.10;;;0.10;;
2896;SDS011;1458;49.728;9.228;2023-09-18T00:16:14;0.10;;;0.10;;
2896;SDS011;1458;49.728;9.228;2023-09-18T00:18:41;0.10;;;0.10;;
2896;SDS011;1458;49.728;9.228;2023-09-18T00:21:09;0.10;;;0.10;;
2896;SDS011;1458;49.728;9.228;2023-09-18T00:23:39;0.10;;;0.10;;
2896;SDS011;1458;49.728;9.228;2023-09-18T00:26:06;0.10;;;0.10;;
2896;SDS011;1458;49.728;9.228;2023-09-18T00:28:34;0.10;;;0.10;;
2896;SDS011;1458;49.728;9.228;2023-09-18T00:31:01;0.10;;;0.10;;
2896;SDS011;1458;49.728;9.228;2023-09-18T00:33:29;0.10;;;0.10;;
2896;SDS011;1458;49.728;9.228;2023-09-18T00:35:56;0.10;;;0.10;;
2896;SDS011;1458;49.728;9.228;2023-09-18T00:38:23;0.10;;;0.10;;
2896;SDS011;1458;49.728;9.228;2023-09-18T00:40:52;0.10;;;0.10;;
2896;SDS011;1458;49.728;9.228;2023-09-18T00:43:20;0.20;;;0.20;;
2896;SDS011;1458;49.728;9.228;2023-09-18T00:45:47;0.10;;;0.10;;
2896;SDS011;1458;49.728;9.228;2023-09-18T00:48:15;0.10;;;0.10;;
2896;SDS011;1458;49.728;9.228;2023-09-18T00:50:43;0.20;;;0.20;;
2896;SDS011;1458;49.728;9.228;2023-09-18T00:53:12;0.13;;;0.13;;
2896;SDS011;1458;49.728;9.228;2023-09-18T00:55:44;0.10;;;0.10;;
2896;SDS011;1458;49.728;9.228;2023-09-18T00:58:13;0.10;;;0.10;;
2896;SDS011;1458;49.728;9.228;2023-09-18T01:00:43;0.20;;;0.20;;
2896;SDS011;1458;49.728;9.228;2023-09-18T01:03:11;0.10;;;0.10;;
2896;SDS011;1458;49.728;9.228;2023-09-18T01:05:38;0.10;;;0.10;;
2896;SDS011;1458;49.728;9.228;2023-09-18T01:08:06;0.10;;;0.10;;
2896;SDS011;1458;49.728;9.228;2023-09-18T01:10:34;0.10;;;0.10;;
2896;SDS011;1458;49.728;9.228;2023-09-18T01:13:16;0.10;;;0.10;;
2896;SDS011;1458;49.728;9.228;2023-09-18T01:15:52;0.10;;;0.10;;
2896;SDS011;1458;49.728;9.228;2023-09-18T01:18:26;0.20;;;0.20;;
2896;SDS011;1458;49.728;9.228;2023-09-18T01:20:53;0.10;;;0.10;;
2896;SDS011;1458;49.728;9.228;2023-09-18T01:23:22;0.20;;;0.20;;
2896;SDS011;1458;49.728;9.228;2023-09-18T01:25:49;0.20;;;0.20;;
2896;SDS011;1458;49.728;9.228;2023-09-18T01:28:17;0.10;;;0.10;;
2896;SDS011;1458;49.728;9.228;2023-09-18T01:30:44;0.10;;;0.10;;
2896;SDS011;1458;49.728;9.228;2023-09-18T01:33:12;0.10;;;0.10;;
2896;SDS011;1458;49.728;9.228;2023-09-18T01:35:40;0.10;;;0.10;;
2896;SDS011;1458;49.728;9.228;2023-09-18T01:38:08;0.20;;;0.20;;
2896;SDS011;1458;49.728;9.228;2023-09-18T01:40:38;0.10;;;0.10;;
2896;SDS011;1458;49.728;9.228;2023-09-18T01:43:06;0.10;;;0.10;;
2896;SDS011;1458;49.728;9.228;2023-09-18T01:45:33;0.17;;;0.17;;
2896;SDS011;1458;49.728;9.228;2023-09-18T01:48:03;0.10;;;0.10;;
2896;SDS011;1458;49.728;9.228;2023-09-18T01:50:32;0.10;;;0.10;;
2896;SDS011;1458;49.728;9.228;2023-09-18T01:52:59;0.10;;;0.10;;
2896;SDS011;1458;49.728;9.228;2023-09-18T01:55:27;0.10;;;0.10;;
2896;SDS011;1458;49.728;9.228;2023-09-18T01:57:57;0.17;;;0.17;;
2896;SDS011;1458;49.728;9.228;2023-09-18T02:00:25;0.10;;;0.10;;
2896;SDS011;1458;49.728;9.228;2023-09-18T02:02:52;0.17;;;0.17;;
2896;SDS011;1458;49.728;9.228;2023-09-18T02:05:20;0.10;;;0.10;;
2896;SDS011;1458;49.728;9.228;2023-09-18T02:07:47;0.10;;;0.10;;
2896;SDS011;1458;49.728;9.228;2023-09-18T02:10:16;0.10;;;0.10;;
2896;SDS011;1458;49.728;9.228;2023-09-18T02:12:43;0.10;;;0.10;;
2896;SDS011;1458;49.728;9.228;2023-09-18T02:15:12;0.10;;;0.10;;
2896;SDS011;1458;49.728;9.228;2023-09-18T02:17:42;0.10;;;0.10;;
2896;SDS011;1458;49.728;9.228;2023-09-18T02:20:09;0.10;;;0.10;;
2896;SDS011;1458;49.728;9.228;2023-09-18T02:22:38;0.10;;;0.10;;
2896;SDS011;1458;49.728;9.228;2023-09-18T02:25:06;0.10;;;0.10;;
2896;SDS011;1458;49.728;9.228;2023-09-18T02:27:34;0.17;;;0.17;;
2896;SDS011;1458;49.728;9.228;2023-09-18T02:30:02;0.13;;;0.13;;
2896;SDS011;1458;49.728;9.228;2023-09-18T02:32:32;0.20;;;0.20;;
2896;SDS011;1458;49.728;9.228;2023-09-18T02:34:59;0.10;;;0.10;;
2896;SDS011;1458;49.728;9.228;2023-09-18T02:37:27;0.10;;;0.10;;
2896;SDS011;1458;49.728;9.228;2023-09-18T02:39:55;0.10;;;0.10;;
2896;SDS011;1458;49.728;9.228;2023-09-18T02:42:23;0.10;;;0.10;;
2896;SDS011;1458;49.728;9.228;2023-09-18T02:44:51;0.10;;;0.10;;
2896;SDS011;1458;49.728;9.228;2023-09-18T02:47:18;0.20;;;0.20;;
2896;SDS011;1458;49.728;9.228;2023-09-18T02:49:47;0.27;;;0.27;;
2896;SDS011;1458;49.728;9.228;2023-09-18T02:52:14;0.20;;;0.20;;
2896;SDS011;1458;49.728;9.228;2023-09-18T02:54:42;0.20;;;0.20;;
2896;SDS011;1458;49.728;9.228;2023-09-18T02:57:09;0.20;;;0.20;;
2896;SDS011;1458;49.728;9.228;2023-09-18T02:59:37;0.10;;;0.10;;
2896;SDS011;1458;49.728;9.228;2023-09-18T03:02:04;0.17;;;0.17;;
2896;SDS011;1458;49.728;9.228;2023-09-18T03:04:32;0.20;;;0.20;;
2896;SDS011;1458;49.728;9.228;2023-09-18T03:07:02;0.20;;;0.20;;
2896;SDS011;1458;49.728;9.228;2023-09-18T03:09:30;0.20;;;0.20;;
2896;SDS011;1458;49.728;9.228;2023-09-18T03:11:58;0.10;;;0.10;;
2896;SDS011;1458;49.728;9.228;2023-09-18T03:14:25;0.10;;;0.10;;
2896;SDS011;1458;49.728;9.228;2023-09-18T03:16:53;0.20;;;0.20;;
2896;SDS011;1458;49.728;9.228;2023-09-18T03:19:20;0.20;;;0.20;;
2896;SDS011;1458;49.728;9.228;2023-09-18T03:21:50;0.20;;;0.20;;
2896;SDS011;1458;49.728;9.228;2023-09-18T03:24:19;0.20;;;0.20;;
2896;SDS011;1458;49.728;9.228;2023-09-18T03:26:47;0.10;;;0.10;;
2896;SDS011;1458;49.728;9.228;2023-09-18T03:29:15;0.20;;;0.20;;
2896;SDS011;1458;49.728;9.228;2023-09-18T03:31:43;0.10;;;0.10;;
2896;SDS011;1458;49.728;9.228;2023-09-18T03:34:10;0.10;;;0.10;;
2896;SDS011;1458;49.728;9.228;2023-09-18T03:36:38;0.10;;;0.10;;
2896;SDS011;1458;49.728;9.228;2023-09-18T03:39:06;0.10;;;0.10;;
2896;SDS011;1458;49.728;9.228;2023-09-18T03:41:36;0.10;;;0.10;;
2896;SDS011;1458;49.728;9.228;2023-09-18T03:44:04;0.20;;;0.20;;
2896;SDS011;1458;49.728;9.228;2023-09-18T03:46:31;0.10;;;0.10;;
2896;SDS011;1458;49.728;9.228;2023-09-18T03:48:59;0.10;;;0.10;;
2896;SDS011;1458;49.728;9.228;2023-09-18T03:51:26;0.10;;;0.10;;
2896;SDS011;1458;49.728;9.228;2023-09-18T03:53:56;0.20;;;0.20;;
2896;SDS011;1458;49.728;9.228;2023-09-18T03:56:23;0.20;;;0.20;;
2896;SDS011;1458;49.728;9.228;2023-09-18T03:58:52;0.10;;;0.10;;
2896;SDS011;1458;49.728;9.228;2023-09-18T04:01:19;0.20;;;0.20;;
2896;SDS011;1458;49.728;9.228;2023-09-18T04:03:47;0.10;;;0.10;;
2896;SDS011;1458;49.728;9.228;2023-09-18T04:06:14;0.10;;;0.10;;
2896;SDS011;1458;49.728;9.228;2023-09-18T04:08:44;0.20;;;0.20;;
2896;SDS011;1458;49.728;9.228;2023-09-18T04:11:12;0.10;;;0.10;;
2896;SDS011;1458;49.728;9.228;2023-09-18T04:13:39;0.13;;;0.13;;
2896;SDS011;1458;49.728;9.228;2023-09-18T04:16:08;0.10;;;0.10;;
2896;SDS011;1458;49.728;9.228;2023-09-18T04:18:39;0.10;;;0.10;;
2896;SDS011;1458;49.728;9.228;2023-09-18T04:21:07;0.10;;;0.10;;
2896;SDS011;1458;49.728;9.228;2023-09-18T04:23:35;0.10;;;0.10;;
2896;SDS011;1458;49.728;9.228;2023-09-18T04:26:03;0.10;;;0.10;;
2896;SDS011;1458;49.728;9.228;2023-09-18T04:28:30;0.10;;;0.10;;
2896;SDS011;1458;49.728;9.228;2023-09-18T04:30:58;0.10;;;0.10;;
2896;SDS011;1458;49.728;9.228;2023-09-18T04:33:28;0.13;;;0.13;;
2896;SDS011;1458;49.728;9.228;2023-09-18T04:35:56;0.10;;;0.10;;
2896;SDS011;1458;49.728;9.228;2023-09-18T04:38:23;0.10;;;0.10;;
2896;SDS011;1458;49.728;9.228;2023-09-18T04:40:57;0.10;;;0.10;;
2896;SDS011;1458;49.728;9.228;2023-09-18T04:43:25;0.10;;;0.10;;
2896;SDS011;1458;49.728;9.228;2023-09-18T04:45:55;0.10;;;0.10;;
2896;SDS011;1458;49.728;9.228;2023-09-18T04:48:22;0.10;;;0.10;;
2896;SDS011;1458;49.728;9.228;2023-09-18T04:50:51;0.10;;;0.10;;
2896;SDS011;1458;49.728;9.228;2023-09-18T04:53:19;0.10;;;0.10;;
2896;SDS011;1458;49.728;9.228;2023-09-18T04:55:47;0.20;;;0.20;;
2896;SDS011;1458;49.728;9.228;2023-09-18T04:58:15;0.10;;;0.10;;
2896;SDS011;1458;49.728;9.228;2023-09-18T05:00:43;0.10;;;0.10;;
2896;SDS011;1458;49.728;9.228;2023-09-18T05:03:11;0.10;;;0.10;;
2896;SDS011;1458;49.728;9.228;2023-09-18T05:05:39;0.10;;;0.10;;
2896;SDS011;1458;49.728;9.228;2023-09-18T05:08:08;0.10;;;0.10;;
2896;SDS011;1458;49.728;9.228;2023-09-18T05:10:35;0.10;;;0.10;;
2896;SDS011;1458;49.728;9.228;2023-09-18T05:13:03;0.10;;;0.10;;
2896;SDS011;1458;49.728;9.228;2023-09-18T05:15:31;0.10;;;0.10;;
2896;SDS011;1458;49.728;9.228;2023-09-18T05:17:59;0.10;;;0.10;;
2896;SDS011;1458;49.728;9.228;2023-09-18T05:20:29;0.10;;;0.10;;
2896;SDS011;1458;49.728;9.228;2023-09-18T05:22:58;0.10;;;0.10;;
2896;SDS011;1458;49.728;9.228;2023-09-18T05:25:28;0.10;;;0.10;;
2896;SDS011;1458;49.728;9.228;2023-09-18T05:27:58;0.10;;;0.10;;
2896;SDS011;1458;49.728;9.228;2023-09-18T05:30:27;0.10;;;0.10;;
2896;SDS011;1458;49.728;9.228;2023-09-18T05:32:56;0.10;;;0.10;;
2896;SDS011;1458;49.728;9.228;2023-09-18T05:35:29;0.10;;;0.10;;
2896;SDS011;1458;49.728;9.228;2023-09-18T05:37:57;0.10;;;0.10;;
2896;SDS011;1458;49.728;9.228;2023-09-18T05:40:25;0.10;;;0.10;;
2896;SDS011;1458;49.728;9.228;2023-09-18T05:42:55;0.10;;;0.10;;
2896;SDS011;1458;49.728;9.228;2023-09-18T05:45:23;0.10;;;0.10;;
2896;SDS011;1458;49.728;9.228;2023-09-18T05:47:52;0.10;;;0.10;;
2896;SDS011;1458;49.728;9.228;2023-09-18T05:50:19;0.10;;;0.10;;
2896;SDS011;1458;49.728;9.228;2023-09-18T05:52:47;0.10;;;0.10;;
2896;SDS011;1458;49.728;9.228;2023-09-18T05:55:15;0.10;;;0.10;;
2896;SDS011;1458;49.728;9.228;2023-09-18T05:57:44;0.10;;;0.10;;
2896;SDS011;1458;49.728;9.228;2023-09-18T06:00:11;0.10;;;0.10;;
2896;SDS011;1458;49.728;9.228;2023-09-18T06:02:44;0.10;;;0.10;;
2896;SDS011;1458;49.728;9.228;2023-09-18T06:05:11;0.10;;;0.10;;
2896;SDS011;1458;49.728;9.228;2023-09-18T06:07:41;0.10;;;0.10;;
2896;SDS011;1458;49.728;9.228;2023-09-18T06:10:09;0.10;;;0.10;;
2896;SDS011;1458;49.728;9.228;2023-09-18T06:12:37;0.10;;;0.10;;
2896;SDS011;1458;49.728;9.228;2023-09-18T06:15:07;0.10;;;0.10;;
2896;SDS011;1458;49.728;9.228;2023-09-18T06:17:37;0.10;;;0.10;;
2896;SDS011;1458;49.728;9.228;2023-09-18T06:20:05;0.10;;;0.10;;
2896;SDS011;1458;49.728;9.228;2023-09-18T06:22:36;0.10;;;0.10;;
2896;SDS011;1458;49.728;9.228;2023-09-18T06:25:05;0.10;;;0.10;;
2896;SDS011;1458;49.728;9.228;2023-09-18T06:27:34;0.10;;;0.10;;
2896;SDS011;1458;49.728;9.228;2023-09-18T06:30:02;0.10;;;0.10;;
2896;SDS011;1458;49.728;9.228;2023-09-18T06:32:31;0.00;;;0.00;;
2896;SDS011;1458;49.728;9.228;2023-09-18T06:34:59;0.10;;;0.10;;
2896;SDS011;1458;49.728;9.228;2023-09-18T06:37:27;0.10;;;0.10;;
2896;SDS011;1458;49.728;9.228;2023-09-18T06:39:54;0.10;;;0.10;;
2896;SDS011;1458;49.728;9.228;2023-09-18T06:42:22;0.10;;;0.10;;
2896;SDS011;1458;49.728;9.228;2023-09-18T06:44:56;0.10;;;0.10;;
2896;SDS011;1458;49.728;9.228;2023-09-18T06:47:24;0.10;;;0.10;;
2896;SDS011;1458;49.728;9.228;2023-09-18T06:49:53;0.10;;;0.10;;
2896;SDS011;1458;49.728;9.228;2023-09-18T06:52:20;0.10;;;0.10;;
2896;SDS011;1458;49.728;9.228;2023-09-18T06:54:47;0.10;;;0.10;;
2896;SDS011;1458;49.728;9.228;2023-09-18T06:57:15;0.10;;;0.10;;
2896;SDS011;1458;49.728;9.228;2023-09-18T06:59:43;0.00;;;0.00;;
2896;SDS011;1458;49.728;9.228;2023-09-18T07:02:12;0.10;;;0.10;;
2896;SDS011;1458;49.728;9.228;2023-09-18T07:04:40;0.10;;;0.10;;
2896;SDS011;1458;49.728;9.228;2023-09-18T07:07:12;0.10;;;0.10;;
2896;SDS011;1458;49.728;9.228;2023-09-18T07:09:40;0.10;;;0.10;;
2896;SDS011;1458;49.728;9.228;2023-09-18T07:12:08;0.10;;;0.10;;
2896;SDS011;1458;49.728;9.228;2023-09-18T07:14:36;0.00;;;0.00;;
2896;SDS011;1458;49.728;9.228;2023-09-18T07:17:03;0.10;;;0.10;;
2896;SDS011;1458;49.728;9.228;2023-09-18T07:19:31;0.10;;;0.10;;
2896;SDS011;1458;49.728;9.228;2023-09-18T07:21:58;0.10;;;0.10;;
2896;SDS011;1458;49.728;9.228;2023-09-18T07:24:27;0.10;;;0.10;;
2896;SDS011;1458;49.728;9.228;2023-09-18T07:26:55;0.10;;;0.10;;
2896;SDS011;1458;49.728;9.228;2023-09-18T07:29:23;0.00;;;0.00;;
2896;SDS011;1458;49.728;9.228;2023-09-18T07:31:51;0.10;;;0.10;;
2896;SDS011;1458;49.728;9.228;2023-09-18T07:34:18;0.00;;;0.00;;
2896;SDS011;1458;49.728;9.228;2023-09-18T07:36:46;0.00;;;0.00;;
2896;SDS011;1458;49.728;9.228;2023-09-18T07:39:19;0.10;;;0.10;;
2896;SDS011;1458;49.728;9.228;2023-09-18T07:41:48;0.10;;;0.10;;
2896;SDS011;1458;49.728;9.228;2023-09-18T07:44:18;0.10;;;0.10;;
2896;SDS011;1458;49.728;9.228;2023-09-18T07:46:46;0.10;;;0.10;;
2896;SDS011;1458;49.728;9.228;2023-09-18T07:49:14;0.10;;;0.10;;
2896;SDS011;1458;49.728;9.228;2023-09-18T07:51:41;0.10;;;0.10;;
2896;SDS011;1458;49.728;9.228;2023-09-18T07:54:13;0.10;;;0.10;;
2896;SDS011;1458;49.728;9.228;2023-09-18T07:56:42;0.10;;;0.10;;
2896;SDS011;1458;49.728;9.228;2023-09-18T07:59:11;0.10;;;0.10;;
2896;SDS011;1458;49.728;9.228;2023-09-18T08:01:39;0.10;;;0.10;;
2896;SDS011;1458;49.728;9.228;2023-09-18T08:04:07;0.10;;;0.10;;
2896;SDS011;1458;49.728;9.228;2023-09-18T08:06:35;0.10;;;0.10;;
2896;SDS011;1458;49.728;9.228;2023-09-18T08:09:03;0.10;;;0.10;;
2896;SDS011;1458;49.728;9.228;2023-09-18T08:11:30;0.10;;;0.10;;
2896;SDS011;1458;49.728;9.228;2023-09-18T08:13:58;0.20;;;0.20;;
2896;SDS011;1458;49.728;9.228;2023-09-18T08:16:27;0.10;;;0.10;;
2896;SDS011;1458;49.728;9.228;2023-09-18T08:18:54;0.20;;;0.20;;
2896;SDS011;1458;49.728;9.228;2023-09-18T08:21:22;0.20;;;0.20;;
2896;SDS011;1458;49.728;9.228;2023-09-18T08:23:49;0.20;;;0.20;;
2896;SDS011;1458;49.728;9.228;2023-09-18T08:26:17;0.30;;;0.30;;
2896;SDS011;1458;49.728;9.228;2023-09-18T08:28:44;0.30;;;0.30;;
2896;SDS011;1458;49.728;9.228;2023-09-18T08:31:11;0.30;;;0.30;;
2896;SDS011;1458;49.728;9.228;2023-09-18T08:33:40;0.30;;;0.30;;
2896;SDS011;1458;49.728;9.228;2023-09-18T08:36:08;0.30;;;0.30;;
2896;SDS011;1458;49.728;9.228;2023-09-18T08:38:36;0.30;;;0.30;;
2896;SDS011;1458;49.728;9.228;2023-09-18T08:41:03;0.30;;;0.30;;
2896;SDS011;1458;49.728;9.228;2023-09-18T08:43:31;0.20;;;0.20;;
2896;SDS011;1458;49.728;9.228;2023-09-18T08:46:00;0.20;;;0.20;;
2896;SDS011;1458;49.728;9.228;2023-09-18T08:48:29;0.30;;;0.30;;
2896;SDS011;1458;49.728;9.228;2023-09-18T08:51:03;0.30;;;0.30;;
2896;SDS011;1458;49.728;9.228;2023-09-18T08:53:33;0.30;;;0.30;;
2896;SDS011;1458;49.728;9.228;2023-09-18T08:56:02;0.40;;;0.40;;
2896;SDS011;1458;49.728;9.228;2023-09-18T08:58:32;0.20;;;0.20;;
2896;SDS011;1458;49.728;9.228;2023-09-18T09:01:02;0.20;;;0.20;;
2896;SDS011;1458;49.728;9.228;2023-09-18T09:03:31;0.30;;;0.30;;
2896;SDS011;1458;49.728;9.228;2023-09-18T09:05:59;0.20;;;0.20;;
2896;SDS011;1458;49.728;9.228;2023-09-18T09:08:28;0.30;;;0.30;;
2896;SDS011;1458;49.728;9.228;2023-09-18T09:10:56;0.20;;;0.20;;
2896;SDS011;1458;49.728;9.228;2023-09-18T09:13:24;0.30;;;0.30;;
2896;SDS011;1458;49.728;9.228;2023-09-18T09:15:52;0.40;;;0.40;;
2896;SDS011;1458;49.728;9.228;2023-09-18T09:18:21;0.40;;;0.40;;
2896;SDS011;1458;49.728;9.228;2023-09-18T09:20:53;0.50;;;0.50;;
2896;SDS011;1458;49.728;9.228;2023-09-18T09:23:24;0.40;;;0.40;;
2896;SDS011;1458;49.728;9.228;2023-09-18T09:25:54;0.50;;;0.50;;
2896;SDS011;1458;49.728;9.228;2023-09-18T09:28:39;0.60;;;0.60;;
2896;SDS011;1458;49.728;9.228;2023-09-18T09:31:08;0.50;;;0.50;;
2896;SDS011;1458;49.728;9.228;2023-09-18T09:33:36;0.47;;;0.47;;
2896;SDS011;1458;49.728;9.228;2023-09-18T09:36:06;0.50;;;0.50;;
2896;SDS011;1458;49.728;9.228;2023-09-18T09:38:34;0.40;;;0.40;;
2896;SDS011;1458;49.728;9.228;2023-09-18T09:41:03;0.37;;;0.37;;
2896;SDS011;1458;49.728;9.228;2023-09-18T09:43:32;0.40;;;0.40;;
2896;SDS011;1458;49.728;9.228;2023-09-18T09:46:00;0.40;;;0.40;;
2896;SDS011;1458;49.728;9.228;2023-09-18T09:48:28;0.50;;;0.50;;
2896;SDS011;1458;49.728;9.228;2023-09-18T09:50:57;0.40;;;0.40;;
2896;SDS011;1458;49.728;9.228;2023-09-18T09:53:42;0.30;;;0.30;;
2896;SDS011;1458;49.728;9.228;2023-09-18T09:56:13;0.50;;;0.50;;
2896;SDS011;1458;49.728;9.228;2023-09-18T09:58:59;0.60;;;0.60;;
2896;SDS011;1458;49.728;9.228;2023-09-18T10:01:29;0.60;;;0.60;;
2896;SDS011;1458;49.728;9.228;2023-09-18T10:03:59;0.60;;;0.60;;
2896;SDS011;1458;49.728;9.228;2023-09-18T10:06:33;0.53;;;0.53;;
2896;SDS011;1458;49.728;9.228;2023-09-18T10:09:02;0.50;;;0.50;;
2896;SDS011;1458;49.728;9.228;2023-09-18T10:11:34;0.50;;;0.50;;
2896;SDS011;1458;49.728;9.228;2023-09-18T10:14:10;0.50;;;0.50;;
2896;SDS011;1458;49.728;9.228;2023-09-18T10:16:44;0.60;;;0.60;;
2896;SDS011;1458;49.728;9.228;2023-09-18T10:19:19;0.60;;;0.60;;
2896;SDS011;1458;49.728;9.228;2023-09-18T10:21:57;0.83;;;0.83;;
2896;SDS011;1458;49.728;9.228;2023-09-18T10:24:36;0.80;;;0.80;;
2896;SDS011;1458;49.728;9.228;2023-09-18T10:27:07;0.80;;;0.80;;
2896;SDS011;1458;49.728;9.228;2023-09-18T10:29:36;0.80;;;0.80;;
2896;SDS011;1458;49.728;9.228;2023-09-18T10:32:04;0.70;;;0.70;;
2896;SDS011;1458;49.728;9.228;2023-09-18T10:34:34;0.60;;;0.60;;
2896;SDS011;1458;49.728;9.228;2023-09-18T10:37:02;0.70;;;0.70;;
2896;SDS011;1458;49.728;9.228;2023-09-18T10:39:32;0.70;;;0.70;;
2896;SDS011;1458;49.728;9.228;2023-09-18T10:42:02;0.60;;;0.60;;
2896;SDS011;1458;49.728;9.228;2023-09-18T10:44:33;0.63;;;0.63;;
2896;SDS011;1458;49.728;9.228;2023-09-18T10:47:01;0.70;;;0.70;;
2896;SDS011;1458;49.728;9.228;2023-09-18T10:49:31;0.57;;;0.57;;
2896;SDS011;1458;49.728;9.228;2023-09-18T10:52:00;0.50;;;0.50;;
2896;SDS011;1458;49.728;9.228;2023-09-18T10:54:29;0.50;;;0.50;;
2896;SDS011;1458;49.728;9.228;2023-09-18T10:56:58;0.60;;;0.60;;
2896;SDS011;1458;49.728;9.228;2023-09-18T10:59:27;0.50;;;0.50;;
2896;SDS011;1458;49.728;9.228;2023-09-18T11:01:58;0.40;;;0.40;;
2896;SDS011;1458;49.728;9.228;2023-09-18T11:04:30;0.40;;;0.40;;
2896;SDS011;1458;49.728;9.228;2023-09-18T11:07:02;0.50;;;0.50;;
2896;SDS011;1458;49.728;9.228;2023-09-18T11:09:32;0.40;;;0.40;;
2896;SDS011;1458;49.728;9.228;2023-09-18T11:12:09;0.50;;;0.50;;
2896;SDS011;1458;49.728;9.228;2023-09-18T11:14:41;0.57;;;0.57;;
2896;SDS011;1458;49.728;9.228;2023-09-18T11:20:05;0.40;;;0.40;;
2896;SDS011;1458;49.728;9.228;2023-09-18T11:22:37;0.57;;;0.57;;
2896;SDS011;1458;49.728;9.228;2023-09-18T11:28:07;0.40;;;0.40;;
2896;SDS011;1458;49.728;9.228;2023-09-18T11:30:36;0.50;;;0.50;;
2896;SDS011;1458;49.728;9.228;2023-09-18T11:33:06;0.80;;;0.80;;
2896;SDS011;1458;49.728;9.228;2023-09-18T11:35:34;0.60;;;0.60;;
2896;SDS011;1458;49.728;9.228;2023-09-18T11:38:03;0.70;;;0.70;;
2896;SDS011;1458;49.728;9.228;2023-09-18T11:40:33;0.87;;;0.87;;
2896;SDS011;1458;49.728;9.228;2023-09-18T11:43:20;0.80;;;0.80;;
2896;SDS011;1458;49.728;9.228;2023-09-18T11:45:55;0.70;;;0.70;;
2896;SDS011;1458;49.728;9.228;2023-09-18T11:48:25;0.80;;;0.80;;
2896;SDS011;1458;49.728;9.228;2023-09-18T11:50:55;0.83;;;0.83;;
2896;SDS011;1458;49.728;9.228;2023-09-18T11:53:26;0.73;;;0.73;;
2896;SDS011;1458;49.728;9.228;2023-09-18T11:55:54;0.80;;;0.80;;
2896;SDS011;1458;49.728;9.228;2023-09-18T11:58:22;0.93;;;0.93;;
2896;SDS011;1458;49.728;9.228;2023-09-18T12:00:49;0.80;;;0.80;;
2896;SDS011;1458;49.728;9.228;2023-09-18T12:03:18;1.00;;;1.00;;
2896;SDS011;1458;49.728;9.228;2023-09-18T12:05:55;0.90;;;0.90;;
2896;SDS011;1458;49.728;9.228;2023-09-18T12:08:25;1.00;;;1.00;;
2896;SDS011;1458;49.728;9.228;2023-09-18T12:10:53;1.00;;;1.00;;
2896;SDS011;1458;49.728;9.228;2023-09-18T12:13:20;1.10;;;1.10;;
2896;SDS011;1458;49.728;9.228;2023-09-18T12:15:49;0.97;;;0.97;;
2896;SDS011;1458;49.728;9.228;2023-09-18T12:18:24;1.00;;;1.00;;
2896;SDS011;1458;49.728;9.228;2023-09-18T12:20:55;1.17;;;1.17;;
2896;SDS011;1458;49.728;9.228;2023-09-18T12:23:24;1.17;;;1.17;;
2896;SDS011;1458;49.728;9.228;2023-09-18T12:25:57;1.10;;;1.10;;
2896;SDS011;1458;49.728;9.228;2023-09-18T12:28:26;1.20;;;1.20;;
2896;SDS011;1458;49.728;9.228;2023-09-18T12:30:55;1.30;;;1.30;;
2896;SDS011;1458;49.728;9.228;2023-09-18T12:33:24;1.40;;;1.40;;
2896;SDS011;1458;49.728;9.228;2023-09-18T12:35:52;1.40;;;1.40;;
2896;SDS011;1458;49.728;9.228;2023-09-18T12:38:21;1.50;;;1.50;;
2896;SDS011;1458;49.728;9.228;2023-09-18T12:40:52;1.70;;;1.70;;
2896;SDS011;1458;49.728;9.228;2023-09-18T12:43:20;2.20;;;2.20;;
2896;SDS011;1458;49.728;9.228;2023-09-18T12:45:49;2.07;;;2.07;;
2896;SDS011;1458;49.728;9.228;2023-09-18T12:48:17;1.93;;;1.93;;
2896;SDS011;1458;49.728;9.228;2023-09-18T12:50:45;2.00;;;2.00;;
2896;SDS011;1458;49.728;9.228;2023-09-18T12:53:14;1.70;;;1.70;;
2896;SDS011;1458;49.728;9.228;2023-09-18T12:55:42;2.10;;;2.10;;
2896;SDS011;1458;49.728;9.228;2023-09-18T12:58:10;2.00;;;2.00;;
2896;SDS011;1458;49.728;9.228;2023-09-18T13:00:44;1.70;;;1.70;;
2896;SDS011;1458;49.728;9.228;2023-09-18T13:03:14;2.10;;;2.10;;
2896;SDS011;1458;49.728;9.228;2023-09-18T13:05:42;2.00;;;2.00;;
2896;SDS011;1458;49.728;9.228;2023-09-18T13:08:09;2.10;;;2.10;;
2896;SDS011;1458;49.728;9.228;2023-09-18T13:10:42;2.50;;;2.50;;
2896;SDS011;1458;49.728;9.228;2023-09-18T13:13:17;2.40;;;2.40;;
2896;SDS011;1458;49.728;9.228;2023-09-18T13:15:45;2.47;;;2.47;;
2896;SDS011;1458;49.728;9.228;2023-09-18T13:18:13;2.17;;;2.17;;
2896;SDS011;1458;49.728;9.228;2023-09-18T13:20:42;2.10;;;2.10;;
2896;SDS011;1458;49.728;9.228;2023-09-18T13:23:10;2.13;;;2.13;;
2896;SDS011;1458;49.728;9.228;2023-09-18T13:25:38;2.20;;;2.20;;
2896;SDS011;1458;49.728;9.228;2023-09-18T13:28:10;2.10;;;2.10;;
2896;SDS011;1458;49.728;9.228;2023-09-18T13:30:39;2.40;;;2.40;;
2896;SDS011;1458;49.728;9.228;2023-09-18T13:33:08;2.23;;;2.23;;
2896;SDS011;1458;49.728;9.228;2023-09-18T13:35:38;1.70;;;1.70;;
2896;SDS011;1458;49.728;9.228;2023-09-18T13:38:07;2.00;;;2.00;;
2896;SDS011;1458;49.728;9.228;2023-09-18T13:40:37;1.90;;;1.90;;
2896;SDS011;1458;49.728;9.228;2023-09-18T13:43:06;1.90;;;1.90;;
2896;SDS011;1458;49.728;9.228;2023-09-18T13:45:36;2.40;;;2.40;;
2896;SDS011;1458;49.728;9.228;2023-09-18T13:48:05;2.50;;;2.50;;
2896;SDS011;1458;49.728;9.228;2023-09-18T13:50:33;2.80;;;2.80;;
2896;SDS011;1458;49.728;9.228;2023-09-18T13:53:01;2.40;;;2.40;;
2896;SDS011;1458;49.728;9.228;2023-09-18T13:55:30;2.90;;;2.90;;
2896;SDS011;1458;49.728;9.228;2023-09-18T13:57:58;3.03;;;3.03;;
2896;SDS011;1458;49.728;9.228;2023-09-18T14:00:28;3.57;;;3.57;;
2896;SDS011;1458;49.728;9.228;2023-09-18T14:02:57;3.37;;;3.37;;
2896;SDS011;1458;49.728;9.228;2023-09-18T14:05:25;3.00;;;3.00;;
2896;SDS011;1458;49.728;9.228;2023-09-18T14:07:55;3.27;;;3.27;;
2896;SDS011;1458;49.728;9.228;2023-09-18T14:10:25;3.30;;;3.30;;
2896;SDS011;1458;49.728;9.228;2023-09-18T14:12:53;3.10;;;3.10;;
2896;SDS011;1458;49.728;9.228;2023-09-18T14:15:22;2.93;;;2.93;;
2896;SDS011;1458;49.728;9.228;2023-09-18T14:17:50;2.90;;;2.90;;
2896;SDS011;1458;49.728;9.228;2023-09-18T14:20:19;2.83;;;2.83;;
2896;SDS011;1458;49.728;9.228;2023-09-18T14:22:47;2.67;;;2.67;;
2896;SDS011;1458;49.728;9.228;2023-09-18T14:25:15;2.80;;;2.80;;
2896;SDS011;1458;49.728;9.228;2023-09-18T14:27:45;2.40;;;2.40;;
2896;SDS011;1458;49.728;9.228;2023-09-18T14:30:12;2.80;;;2.80;;
2896;SDS011;1458;49.728;9.228;2023-09-18T14:32:40;2.60;;;2.60;;
2896;SDS011;1458;49.728;9.228;2023-09-18T14:35:08;2.60;;;2.60;;
2896;SDS011;1458;49.728;9.228;2023-09-18T14:37:38;2.80;;;2.80;;
2896;SDS011;1458;49.728;9.228;2023-09-18T14:40:05;2.50;;;2.50;;
2896;SDS011;1458;49.728;9.228;2023-09-18T14:42:37;2.70;;;2.70;;
2896;SDS011;1458;49.728;9.228;2023-09-18T14:45:04;2.40;;;2.40;;
2896;SDS011;1458;49.728;9.228;2023-09-18T14:47:33;2.70;;;2.70;;
2896;SDS011;1458;49.728;9.228;2023-09-18T14:50:00;2.50;;;2.50;;
2896;SDS011;1458;49.728;9.228;2023-09-18T14:52:29;2.70;;;2.70;;
2896;SDS011;1458;49.728;9.228;2023-09-18T14:54:58;2.70;;;2.70;;
2896;SDS011;1458;49.728;9.228;2023-09-18T14:57:27;2.60;;;2.60;;
2896;SDS011;1458;49.728;9.228;2023-09-18T14:59:54;2.90;;;2.90;;
2896;SDS011;1458;49.728;9.228;2023-09-18T15:02:21;2.50;;;2.50;;
2896;SDS011;1458;49.728;9.228;2023-09-18T15:04:54;2.83;;;2.83;;
2896;SDS011;1458;49.728;9.228;2023-09-18T15:07:21;2.80;;;2.80;;
2896;SDS011;1458;49.728;9.228;2023-09-18T15:09:49;2.70;;;2.70;;
2896;SDS011;1458;49.728;9.228;2023-09-18T15:12:18;2.73;;;2.73;;
2896;SDS011;1458;49.728;9.228;2023-09-18T15:14:45;2.83;;;2.83;;
2896;SDS011;1458;49.728;9.228;2023-09-18T15:17:12;2.70;;;2.70;;
2896;SDS011;1458;49.728;9.228;2023-09-18T15:19:40;2.83;;;2.83;;
2896;SDS011;1458;49.728;9.228;2023-09-18T15:22:08;2.80;;;2.80;;
2896;SDS011;1458;49.728;9.228;2023-09-18T15:24:35;2.80;;;2.80;;
2896;SDS011;1458;49.728;9.228;2023-09-18T15:27:03;3.10;;;3.10;;
2896;SDS011;1458;49.728;9.228;2023-09-18T15:29:32;3.00;;;3.00;;
2896;SDS011;1458;49.728;9.228;2023-09-18T15:31:59;3.13;;;3.13;;